sensor_id;sensor_type;location;lat;lon;timestamp;pressure;altitude;pressure_sealevel;temperature;humidity
59825;BME280;45703;50.898;6.054;2023-02-17T00:01:43;100698.09;;;10.55;97.20
59825;BME280;45703;50.898;6.054;2023-02-17T00:04:08;100714.34;;;10.54;97.39
59825;BME280;45703;50.898;6.054;2023-02-17T00:06:34;100719.25;;;10.57;97.48
59825;BME280;45703;50.898;6.054;2023-02-17T00:08:59;100713.91;;;10.57;97.78
59825;BME280;45703;50.898;6.054;2023-02-17T00:11:26;100712.69;;;10.53;97.35
59825;BME280;45703;50.898;6.054;2023-02-17T00:13:52;100711.66;;;10.54;97.63
59825;BME280;45703;50.898;6.054;2023-02-17T00:16:20;100711.84;;;10.59;97.68
59825;BME280;45703;50.898;6.054;2023-02-17T00:18:47;100711.84;;;10.59;97.65
59825;BME280;45703;50.898;6.054;2023-02-17T00:21:18;100700.56;;;10.57;97.54
59825;BME280;45703;50.898;6.054;2023-02-17T00:23:45;100695.41;;;10.62;98.18
59825;BME280;45703;50.898;6.054;2023-02-17T00:26:11;100707.72;;;10.63;97.93
59825;BME280;45703;50.898;6.054;2023-02-17T00:28:37;100690.06;;;10.62;98.08
59825;BME280;45703;50.898;6.054;2023-02-17T00:31:13;100704.41;;;10.67;97.55
59825;BME280;45703;50.898;6.054;2023-02-17T00:33:39;100701.97;;;10.66;97.77
59825;BME280;45703;50.898;6.054;2023-02-17T00:36:06;100696.63;;;10.66;97.30
59825;BME280;45703;50.898;6.054;2023-02-17T00:38:32;100691.91;;;10.68;97.48
59825;BME280;45703;50.898;6.054;2023-02-17T00:40:57;100696.63;;;10.66;98.22
59825;BME280;45703;50.898;6.054;2023-02-17T00:43:23;100687.59;;;10.67;97.82
59825;BME280;45703;50.898;6.054;2023-02-17T00:45:48;100693.72;;;10.74;98.11
59825;BME280;45703;50.898;6.054;2023-02-17T00:48:13;100707.06;;;10.74;97.82
59825;BME280;45703;50.898;6.054;2023-02-17T00:50:39;100691.06;;;10.67;98.42
59825;BME280;45703;50.898;6.054;2023-02-17T00:53:04;100685.09;;;10.72;97.89
59825;BME280;45703;50.898;6.054;2023-02-17T00:55:29;100679.97;;;10.70;98.14
59825;BME280;45703;50.898;6.054;2023-02-17T00:57:55;100678.13;;;10.71;98.02
59825;BME280;45703;50.898;6.054;2023-02-17T01:00:20;100683.88;;;10.68;98.77
59825;BME280;45703;50.898;6.054;2023-02-17T01:02:46;100690.44;;;10.78;98.41
59825;BME280;45703;50.898;6.054;2023-02-17T01:05:11;100676.66;;;10.75;98.46
59825;BME280;45703;50.898;6.054;2023-02-17T01:07:37;100662.47;;;10.81;98.34
59825;BME280;45703;50.898;6.054;2023-02-17T01:10:04;100653.84;;;10.79;98.52
59825;BME280;45703;50.898;6.054;2023-02-17T01:12:29;100664.97;;;10.76;98.07
59825;BME280;45703;50.898;6.054;2023-02-17T01:14:55;100656.53;;;10.79;98.35
59825;BME280;45703;50.898;6.054;2023-02-17T01:17:20;100672.34;;;10.80;99.00
59825;BME280;45703;50.898;6.054;2023-02-17T01:19:45;100655.06;;;10.83;99.08
59825;BME280;45703;50.898;6.054;2023-02-17T01:22:11;100653.00;;;10.85;98.42
59825;BME280;45703;50.898;6.054;2023-02-17T01:24:37;100646.00;;;10.84;98.60
59825;BME280;45703;50.898;6.054;2023-02-17T01:27:03;100639.03;;;10.83;98.45
59825;BME280;45703;50.898;6.054;2023-02-17T01:29:28;100636.78;;;10.80;98.80
59825;BME280;45703;50.898;6.054;2023-02-17T01:31:54;100652.56;;;10.88;98.57
59825;BME280;45703;50.898;6.054;2023-02-17T01:34:20;100624.44;;;10.85;98.73
59825;BME280;45703;50.898;6.054;2023-02-17T01:36:45;100646.00;;;10.90;98.65
59825;BME280;45703;50.898;6.054;2023-02-17T01:39:15;100635.94;;;10.86;99.06
59825;BME280;45703;50.898;6.054;2023-02-17T01:41:41;100630.16;;;10.89;98.52
59825;BME280;45703;50.898;6.054;2023-02-17T01:44:20;100640.66;;;10.90;98.93
59825;BME280;45703;50.898;6.054;2023-02-17T01:46:48;100629.13;;;10.90;98.78
59825;BME280;45703;50.898;6.054;2023-02-17T01:49:38;100634.28;;;10.91;98.41
59825;BME280;45703;50.898;6.054;2023-02-17T01:52:14;100621.72;;;10.92;98.65
59825;BME280;45703;50.898;6.054;2023-02-17T01:54:57;100623.78;;;10.90;98.30
59825;BME280;45703;50.898;6.054;2023-02-17T01:57:25;100611.91;;;10.86;98.69
59825;BME280;45703;50.898;6.054;2023-02-17T01:59:52;100610.44;;;10.90;98.58
59825;BME280;45703;50.898;6.054;2023-02-17T02:02:18;100619.88;;;10.92;98.66
59825;BME280;45703;50.898;6.054;2023-02-17T02:04:44;100616.38;;;10.92;98.57
59825;BME280;45703;50.898;6.054;2023-02-17T02:07:16;100613.28;;;10.95;98.42
59825;BME280;45703;50.898;6.054;2023-02-17T02:09:48;100614.28;;;11.00;98.09
59825;BME280;45703;50.898;6.054;2023-02-17T02:14:41;100617.59;;;10.96;97.98
59825;BME280;45703;50.898;6.054;2023-02-17T02:17:25;100611.00;;;10.98;97.87
59825;BME280;45703;50.898;6.054;2023-02-17T02:20:26;100611.41;;;11.02;97.87
59825;BME280;45703;50.898;6.054;2023-02-17T02:29:16;100608.34;;;10.98;97.92
59825;BME280;45703;50.898;6.054;2023-02-17T02:34:52;100596.00;;;11.04;98.07
59825;BME280;45703;50.898;6.054;2023-02-17T02:37:26;100597.81;;;11.03;97.93
59825;BME280;45703;50.898;6.054;2023-02-17T02:39:59;100601.75;;;11.01;97.93
59825;BME280;45703;50.898;6.054;2023-02-17T02:42:27;100574.81;;;11.02;97.85
59825;BME280;45703;50.898;6.054;2023-02-17T02:44:53;100589.00;;;11.03;97.95
59825;BME280;45703;50.898;6.054;2023-02-17T02:47:42;100593.53;;;11.02;97.79
59825;BME280;45703;50.898;6.054;2023-02-17T02:50:13;100597.41;;;11.06;97.84
59825;BME280;45703;50.898;6.054;2023-02-17T02:55:32;100611.16;;;11.10;97.73
59825;BME280;45703;50.898;6.054;2023-02-17T02:58:21;100599.25;;;11.06;97.61
59825;BME280;45703;50.898;6.054;2023-02-17T03:00:56;100600.47;;;11.10;97.41
59825;BME280;45703;50.898;6.054;2023-02-17T03:03:33;100606.84;;;11.09;97.37
59825;BME280;45703;50.898;6.054;2023-02-17T03:08:51;100595.28;;;11.15;97.11
59825;BME280;45703;50.898;6.054;2023-02-17T03:11:22;100590.38;;;11.12;97.18
59825;BME280;45703;50.898;6.054;2023-02-17T03:14:15;100594.47;;;11.14;97.25
59825;BME280;45703;50.898;6.054;2023-02-17T03:16:41;100596.31;;;11.14;97.23
59825;BME280;45703;50.898;6.054;2023-02-17T03:19:08;100596.09;;;11.15;97.15
59825;BME280;45703;50.898;6.054;2023-02-17T03:21:37;100587.09;;;11.10;97.25
59825;BME280;45703;50.898;6.054;2023-02-17T03:24:05;100605.97;;;11.15;97.29
59825;BME280;45703;50.898;6.054;2023-02-17T03:26:30;100594.25;;;11.16;96.81
59825;BME280;45703;50.898;6.054;2023-02-17T03:28:56;100577.38;;;11.15;96.87
59825;BME280;45703;50.898;6.054;2023-02-17T03:31:21;100576.16;;;11.18;96.94
59825;BME280;45703;50.898;6.054;2023-02-17T03:33:47;100571.00;;;11.16;97.06
59825;BME280;45703;50.898;6.054;2023-02-17T03:36:13;100572.03;;;11.15;96.98
59825;BME280;45703;50.898;6.054;2023-02-17T03:38:38;100560.16;;;11.11;97.01
59825;BME280;45703;50.898;6.054;2023-02-17T03:41:04;100553.34;;;11.15;96.70
59825;BME280;45703;50.898;6.054;2023-02-17T03:43:29;100566.06;;;11.20;96.75
59825;BME280;45703;50.898;6.054;2023-02-17T03:45:54;100570.41;;;11.14;96.69
59825;BME280;45703;50.898;6.054;2023-02-17T03:48:20;100564.44;;;11.19;96.59
59825;BME280;45703;50.898;6.054;2023-02-17T03:50:45;100555.22;;;11.15;96.73
59825;BME280;45703;50.898;6.054;2023-02-17T03:53:10;100556.59;;;11.17;96.88
59825;BME280;45703;50.898;6.054;2023-02-17T03:55:36;100566.53;;;11.10;96.92
59825;BME280;45703;50.898;6.054;2023-02-17T03:58:01;100572.88;;;11.16;96.57
59825;BME280;45703;50.898;6.054;2023-02-17T04:00:27;100557.03;;;11.14;96.71
59825;BME280;45703;50.898;6.054;2023-02-17T04:02:52;100556.84;;;11.16;96.85
59825;BME280;45703;50.898;6.054;2023-02-17T04:05:18;100561.59;;;11.14;96.52
59825;BME280;45703;50.898;6.054;2023-02-17T04:07:43;100575.16;;;11.12;96.90
59825;BME280;45703;50.898;6.054;2023-02-17T04:10:09;100552.97;;;11.12;96.60
59825;BME280;45703;50.898;6.054;2023-02-17T04:12:34;100556.69;;;11.11;96.66
59825;BME280;45703;50.898;6.054;2023-02-17T04:15:00;100562.66;;;11.06;96.67
59825;BME280;45703;50.898;6.054;2023-02-17T04:17:25;100570.91;;;11.05;96.73
59825;BME280;45703;50.898;6.054;2023-02-17T04:19:50;100578.09;;;11.04;96.74
59825;BME280;45703;50.898;6.054;2023-02-17T04:22:16;100585.91;;;11.06;96.70
59825;BME280;45703;50.898;6.054;2023-02-17T04:24:41;100575.22;;;11.06;96.60
59825;BME280;45703;50.898;6.054;2023-02-17T04:27:07;100572.97;;;11.03;96.62
59825;BME280;45703;50.898;6.054;2023-02-17T04:29:33;100567.03;;;11.01;96.54
59825;BME280;45703;50.898;6.054;2023-02-17T04:31:59;100574.19;;;11.07;96.78
59825;BME280;45703;50.898;6.054;2023-02-17T04:34:24;100572.31;;;11.07;96.57
59825;BME280;45703;50.898;6.054;2023-02-17T04:36:49;100567.81;;;11.08;96.41
59825;BME280;45703;50.898;6.054;2023-02-17T04:39:15;100571.06;;;11.10;96.37
59825;BME280;45703;50.898;6.054;2023-02-17T04:41:40;100572.13;;;11.09;96.17
59825;BME280;45703;50.898;6.054;2023-02-17T04:44:06;100571.69;;;11.12;95.99
59825;BME280;45703;50.898;6.054;2023-02-17T04:46:31;100562.88;;;11.05;95.97
59825;BME280;45703;50.898;6.054;2023-02-17T04:48:56;100575.38;;;11.11;95.97
59825;BME280;45703;50.898;6.054;2023-02-17T04:51:22;100576.41;;;11.10;95.82
59825;BME280;45703;50.898;6.054;2023-02-17T04:53:47;100587.53;;;11.07;96.26
59825;BME280;45703;50.898;6.054;2023-02-17T04:56:13;100595.72;;;11.12;96.29
59825;BME280;45703;50.898;6.054;2023-02-17T04:58:38;100595.31;;;11.08;96.24
59825;BME280;45703;50.898;6.054;2023-02-17T05:01:03;100601.06;;;11.12;95.83
59825;BME280;45703;50.898;6.054;2023-02-17T05:03:29;100586.84;;;11.18;95.88
59825;BME280;45703;50.898;6.054;2023-02-17T05:05:54;100590.13;;;11.20;95.83
59825;BME280;45703;50.898;6.054;2023-02-17T05:08:20;100592.19;;;11.18;95.70
59825;BME280;45703;50.898;6.054;2023-02-17T05:10:45;100577.63;;;11.14;95.69
59825;BME280;45703;50.898;6.054;2023-02-17T05:13:10;100584.78;;;11.20;95.73
59825;BME280;45703;50.898;6.054;2023-02-17T05:15:36;100571.84;;;11.17;95.71
59825;BME280;45703;50.898;6.054;2023-02-17T05:18:02;100580.81;;;11.22;95.46
59825;BME280;45703;50.898;6.054;2023-02-17T05:20:27;100571.00;;;11.16;95.38
59825;BME280;45703;50.898;6.054;2023-02-17T05:22:53;100581.50;;;11.18;95.41
59825;BME280;45703;50.898;6.054;2023-02-17T05:25:18;100579.63;;;11.18;95.31
59825;BME280;45703;50.898;6.054;2023-02-17T05:27:44;100595.03;;;11.23;95.43
59825;BME280;45703;50.898;6.054;2023-02-17T05:30:10;100582.91;;;11.20;95.94
59825;BME280;45703;50.898;6.054;2023-02-17T05:32:35;100590.72;;;11.22;95.56
59825;BME280;45703;50.898;6.054;2023-02-17T05:35:01;100582.09;;;11.20;95.83
59825;BME280;45703;50.898;6.054;2023-02-17T05:37:26;100578.38;;;11.21;95.59
59825;BME280;45703;50.898;6.054;2023-02-17T05:39:51;100569.94;;;11.24;95.61
59825;BME280;45703;50.898;6.054;2023-02-17T05:42:17;100562.56;;;11.19;95.92
59825;BME280;45703;50.898;6.054;2023-02-17T05:44:42;100556.59;;;11.17;95.87
59825;BME280;45703;50.898;6.054;2023-02-17T05:47:08;100546.75;;;11.18;96.12
59825;BME280;45703;50.898;6.054;2023-02-17T05:49:33;100555.78;;;11.23;96.52
59825;BME280;45703;50.898;6.054;2023-02-17T05:51:58;100558.22;;;11.25;96.31
59825;BME280;45703;50.898;6.054;2023-02-17T05:54:24;100564.38;;;11.25;96.38
59825;BME280;45703;50.898;6.054;2023-02-17T05:56:49;100552.25;;;11.23;96.50
59825;BME280;45703;50.898;6.054;2023-02-17T05:59:15;100567.25;;;11.24;96.57
59825;BME280;45703;50.898;6.054;2023-02-17T06:01:40;100568.28;;;11.23;96.70
59825;BME280;45703;50.898;6.054;2023-02-17T06:04:06;100575.06;;;11.25;96.78
59825;BME280;45703;50.898;6.054;2023-02-17T06:06:31;100574.25;;;11.25;96.66
59825;BME280;45703;50.898;6.054;2023-02-17T06:08:56;100573.44;;;11.24;97.25
59825;BME280;45703;50.898;6.054;2023-02-17T06:11:22;100581.66;;;11.23;97.15
59825;BME280;45703;50.898;6.054;2023-02-17T06:13:47;100583.31;;;11.24;97.39
59825;BME280;45703;50.898;6.054;2023-02-17T06:16:12;100582.91;;;11.20;97.41
59825;BME280;45703;50.898;6.054;2023-02-17T06:18:38;100580.03;;;11.22;97.50
59825;BME280;45703;50.898;6.054;2023-02-17T06:21:03;100591.47;;;11.29;97.35
59825;BME280;45703;50.898;6.054;2023-02-17T06:23:29;100574.66;;;11.28;97.49
59825;BME280;45703;50.898;6.054;2023-02-17T06:25:54;100585.34;;;11.28;97.29
59825;BME280;45703;50.898;6.054;2023-02-17T06:28:20;100588.00;;;11.28;97.40
59825;BME280;45703;50.898;6.054;2023-02-17T06:30:45;100585.53;;;11.27;97.24
59825;BME280;45703;50.898;6.054;2023-02-17T06:33:11;100591.47;;;11.29;97.07
59825;BME280;45703;50.898;6.054;2023-02-17T06:35:36;100591.03;;;11.32;97.12
59825;BME280;45703;50.898;6.054;2023-02-17T06:38:02;100578.28;;;11.34;97.06
59825;BME280;45703;50.898;6.054;2023-02-17T06:40:27;100580.34;;;11.32;97.14
59825;BME280;45703;50.898;6.054;2023-02-17T06:42:53;100565.59;;;11.29;97.26
59825;BME280;45703;50.898;6.054;2023-02-17T06:45:18;100574.22;;;11.31;97.17
59825;BME280;45703;50.898;6.054;2023-02-17T06:47:43;100585.50;;;11.33;97.25
59825;BME280;45703;50.898;6.054;2023-02-17T06:50:09;100582.59;;;11.35;97.32
59825;BME280;45703;50.898;6.054;2023-02-17T06:52:35;100583.63;;;11.34;97.18
59825;BME280;45703;50.898;6.054;2023-02-17T06:55:00;100579.56;;;11.31;97.67
59825;BME280;45703;50.898;6.054;2023-02-17T06:57:26;100584.66;;;11.33;98.54
59825;BME280;45703;50.898;6.054;2023-02-17T06:59:51;100576.81;;;11.38;98.97
59825;BME280;45703;50.898;6.054;2023-02-17T07:02:17;100581.56;;;11.36;99.09
59825;BME280;45703;50.898;6.054;2023-02-17T07:04:42;100576.22;;;11.36;99.18
59825;BME280;45703;50.898;6.054;2023-02-17T07:07:09;100586.09;;;11.35;99.53
59825;BME280;45703;50.898;6.054;2023-02-17T07:09:35;100581.56;;;11.36;99.76
59825;BME280;45703;50.898;6.054;2023-02-17T07:12:01;100574.22;;;11.31;99.98
59825;BME280;45703;50.898;6.054;2023-02-17T07:14:26;100593.50;;;11.33;100.00
59825;BME280;45703;50.898;6.054;2023-02-17T07:16:52;100584.91;;;11.31;100.00
59825;BME280;45703;50.898;6.054;2023-02-17T07:19:17;100575.44;;;11.29;100.00
59825;BME280;45703;50.898;6.054;2023-02-17T07:21:43;100574.81;;;11.33;100.00
59825;BME280;45703;50.898;6.054;2023-02-17T07:24:08;100586.28;;;11.34;100.00
59825;BME280;45703;50.898;6.054;2023-02-17T07:26:35;100583.63;;;11.34;100.00
59825;BME280;45703;50.898;6.054;2023-02-17T07:29:02;100599.47;;;11.35;100.00
59825;BME280;45703;50.898;6.054;2023-02-17T07:31:27;100601.91;;;11.37;100.00
59825;BME280;45703;50.898;6.054;2023-02-17T07:33:53;100595.97;;;11.35;100.00
59825;BME280;45703;50.898;6.054;2023-02-17T07:36:18;100598.78;;;11.40;100.00
59825;BME280;45703;50.898;6.054;2023-02-17T07:38:44;100586.28;;;11.34;100.00
59825;BME280;45703;50.898;6.054;2023-02-17T07:41:13;100598.00;;;11.39;100.00
59825;BME280;45703;50.898;6.054;2023-02-17T07:43:38;100599.38;;;11.42;100.00
59825;BME280;45703;50.898;6.054;2023-02-17T07:46:05;100582.75;;;11.40;100.00
59825;BME280;45703;50.898;6.054;2023-02-17T07:48:30;100586.03;;;11.42;100.00
59825;BME280;45703;50.898;6.054;2023-02-17T07:50:56;100605.34;;;11.43;100.00
59825;BME280;45703;50.898;6.054;2023-02-17T07:53:22;100601.19;;;11.47;100.00
59825;BME280;45703;50.898;6.054;2023-02-17T07:55:47;100605.94;;;11.45;100.00
59825;BME280;45703;50.898;6.054;2023-02-17T07:58:13;100603.22;;;11.52;100.00
59825;BME280;45703;50.898;6.054;2023-02-17T08:00:38;100603.03;;;11.53;100.00
59825;BME280;45703;50.898;6.054;2023-02-17T08:03:04;100598.09;;;11.50;100.00
59825;BME280;45703;50.898;6.054;2023-02-17T08:05:29;100606.50;;;11.54;100.00
59825;BME280;45703;50.898;6.054;2023-02-17T08:07:54;100598.91;;;11.57;100.00
59825;BME280;45703;50.898;6.054;2023-02-17T08:10:39;100594.31;;;11.64;100.00
59825;BME280;45703;50.898;6.054;2023-02-17T08:13:25;100604.56;;;11.67;100.00
59825;BME280;45703;50.898;6.054;2023-02-17T08:15:51;100601.91;;;11.67;100.00
59825;BME280;45703;50.898;6.054;2023-02-17T08:18:16;100586.44;;;11.69;100.00
59825;BME280;45703;50.898;6.054;2023-02-17T08:20:42;100582.88;;;11.75;100.00
59825;BME280;45703;50.898;6.054;2023-02-17T08:23:07;100597.69;;;11.78;100.00
59825;BME280;45703;50.898;6.054;2023-02-17T08:25:34;100602.97;;;11.84;100.00
59825;BME280;45703;50.898;6.054;2023-02-17T08:28:01;100600.44;;;11.89;100.00
59825;BME280;45703;50.898;6.054;2023-02-17T08:30:26;100602.47;;;11.94;100.00
59825;BME280;45703;50.898;6.054;2023-02-17T08:32:52;100606.97;;;11.93;100.00
59825;BME280;45703;50.898;6.054;2023-02-17T08:35:17;100618.47;;;12.00;100.00
59825;BME280;45703;50.898;6.054;2023-02-17T08:37:49;100613.13;;;12.00;100.00
59825;BME280;45703;50.898;6.054;2023-02-17T08:40:15;100614.66;;;12.08;100.00
59825;BME280;45703;50.898;6.054;2023-02-17T08:42:40;100618.19;;;12.08;99.99
59825;BME280;45703;50.898;6.054;2023-02-17T08:45:06;100626.78;;;12.10;100.00
59825;BME280;45703;50.898;6.054;2023-02-17T08:47:32;100619.38;;;12.12;100.00
59825;BME280;45703;50.898;6.054;2023-02-17T08:49:58;100626.94;;;12.15;100.00
59825;BME280;45703;50.898;6.054;2023-02-17T08:52:24;100626.50;;;12.18;100.00
59825;BME280;45703;50.898;6.054;2023-02-17T08:54:49;100626.25;;;12.20;100.00
59825;BME280;45703;50.898;6.054;2023-02-17T08:57:16;100608.97;;;12.22;100.00
59825;BME280;45703;50.898;6.054;2023-02-17T08:59:43;100617.59;;;12.24;99.79
59825;BME280;45703;50.898;6.054;2023-02-17T09:02:12;100624.72;;;12.30;99.86
59825;BME280;45703;50.898;6.054;2023-02-17T09:04:38;100613.56;;;12.33;99.67
59825;BME280;45703;50.898;6.054;2023-02-17T09:07:03;100606.13;;;12.35;99.43
59825;BME280;45703;50.898;6.054;2023-02-17T09:09:29;100623.81;;;12.36;99.58
59825;BME280;45703;50.898;6.054;2023-02-17T09:11:56;100618.63;;;12.41;99.34
59825;BME280;45703;50.898;6.054;2023-02-17T09:14:22;100613.66;;;12.45;99.13
59825;BME280;45703;50.898;6.054;2023-02-17T09:16:51;100619.81;;;12.45;98.96
59825;BME280;45703;50.898;6.054;2023-02-17T09:19:18;100622.66;;;12.50;99.10
59825;BME280;45703;50.898;6.054;2023-02-17T09:21:43;100610.44;;;12.54;98.77
59825;BME280;45703;50.898;6.054;2023-02-17T09:24:09;100622.34;;;12.58;98.73
59825;BME280;45703;50.898;6.054;2023-02-17T09:26:34;100619.22;;;12.61;98.57
59825;BME280;45703;50.898;6.054;2023-02-17T09:29:01;100623.09;;;12.65;98.16
59825;BME280;45703;50.898;6.054;2023-02-17T09:31:28;100634.16;;;12.69;98.20
59825;BME280;45703;50.898;6.054;2023-02-17T09:33:54;100636.16;;;12.73;97.78
59825;BME280;45703;50.898;6.054;2023-02-17T09:36:22;100620.47;;;12.77;97.66
59825;BME280;45703;50.898;6.054;2023-02-17T09:38:49;100620.88;;;12.74;97.28
59825;BME280;45703;50.898;6.054;2023-02-17T09:41:20;100616.50;;;12.79;97.30
59825;BME280;45703;50.898;6.054;2023-02-17T09:43:46;100624.09;;;12.82;97.55
59825;BME280;45703;50.898;6.054;2023-02-17T09:46:36;100615.38;;;12.87;97.40
59825;BME280;45703;50.898;6.054;2023-02-17T09:49:12;100602.50;;;12.95;97.22
59825;BME280;45703;50.898;6.054;2023-02-17T09:51:44;100626.75;;;13.00;96.59
59825;BME280;45703;50.898;6.054;2023-02-17T09:54:19;100618.03;;;13.04;95.96
59825;BME280;45703;50.898;6.054;2023-02-17T09:56:50;100617.81;;;13.06;96.14
59825;BME280;45703;50.898;6.054;2023-02-17T09:59:24;100623.31;;;13.11;96.12
59825;BME280;45703;50.898;6.054;2023-02-17T10:01:52;100617.03;;;13.17;95.70
59825;BME280;45703;50.898;6.054;2023-02-17T10:04:22;100611.22;;;13.20;95.40
59825;BME280;45703;50.898;6.054;2023-02-17T10:06:53;100618.47;;;13.31;95.06
59825;BME280;45703;50.898;6.054;2023-02-17T10:09:29;100600.41;;;13.38;94.71
59825;BME280;45703;50.898;6.054;2023-02-17T10:12:02;100608.38;;;13.44;94.34
59825;BME280;45703;50.898;6.054;2023-02-17T10:14:33;100623.44;;;13.57;93.28
59825;BME280;45703;50.898;6.054;2023-02-17T10:17:17;100601.25;;;13.61;93.57
59825;BME280;45703;50.898;6.054;2023-02-17T10:22:30;100603.16;;;13.84;92.62
59825;BME280;45703;50.898;6.054;2023-02-17T10:24:56;100601.75;;;13.93;92.20
59825;BME280;45703;50.898;6.054;2023-02-17T10:30:30;100619.47;;;14.05;91.36
59825;BME280;45703;50.898;6.054;2023-02-17T10:33:11;100615.53;;;14.08;91.08
59825;BME280;45703;50.898;6.054;2023-02-17T10:35:53;100635.03;;;14.15;89.84
59825;BME280;45703;50.898;6.054;2023-02-17T10:38:36;100611.56;;;14.22;90.88
59825;BME280;45703;50.898;6.054;2023-02-17T10:41:10;100609.56;;;14.29;89.45
59825;BME280;45703;50.898;6.054;2023-02-17T10:43:37;100608.53;;;14.30;89.47
59825;BME280;45703;50.898;6.054;2023-02-17T10:46:05;100623.69;;;14.36;88.61
59825;BME280;45703;50.898;6.054;2023-02-17T10:48:38;100626.16;;;14.37;88.04
59825;BME280;45703;50.898;6.054;2023-02-17T10:51:05;100638.63;;;14.32;88.70
59825;BME280;45703;50.898;6.054;2023-02-17T10:53:33;100619.72;;;14.27;88.07
59825;BME280;45703;50.898;6.054;2023-02-17T10:56:08;100630.38;;;14.33;88.83
59825;BME280;45703;50.898;6.054;2023-02-17T11:01:10;100613.78;;;14.36;88.62
59825;BME280;45703;50.898;6.054;2023-02-17T11:03:37;100614.09;;;14.40;88.80
59825;BME280;45703;50.898;6.054;2023-02-17T11:08:49;100640.75;;;14.41;88.80
59825;BME280;45703;50.898;6.054;2023-02-17T11:11:23;100636.75;;;14.43;88.46
59825;BME280;45703;50.898;6.054;2023-02-17T11:18:57;100666.66;;;14.36;87.86
59825;BME280;45703;50.898;6.054;2023-02-17T11:21:23;100653.81;;;14.38;88.50
59825;BME280;45703;50.898;6.054;2023-02-17T11:23:54;100633.97;;;14.39;88.26
59825;BME280;45703;50.898;6.054;2023-02-17T11:26:25;100630.47;;;14.38;87.98
59825;BME280;45703;50.898;6.054;2023-02-17T11:28:51;100631.38;;;14.43;87.80
59825;BME280;45703;50.898;6.054;2023-02-17T11:31:26;100644.59;;;14.45;87.80
59825;BME280;45703;50.898;6.054;2023-02-17T11:33:52;100624.16;;;14.44;88.06
59825;BME280;45703;50.898;6.054;2023-02-17T11:38:49;100636.50;;;14.56;86.92
59825;BME280;45703;50.898;6.054;2023-02-17T11:41:14;100623.19;;;14.61;87.03
59825;BME280;45703;50.898;6.054;2023-02-17T11:43:55;100622.22;;;14.67;86.66
59825;BME280;45703;50.898;6.054;2023-02-17T12:00:17;100631.03;;;14.91;85.26
59825;BME280;45703;50.898;6.054;2023-02-17T12:03:00;100609.25;;;14.92;85.19
59825;BME280;45703;50.898;6.054;2023-02-17T12:05:50;100619.06;;;14.98;84.59
59825;BME280;45703;50.898;6.054;2023-02-17T12:08:25;100609.25;;;14.92;84.05
59825;BME280;45703;50.898;6.054;2023-02-17T12:11:08;100587.75;;;14.92;84.21
59825;BME280;45703;50.898;6.054;2023-02-17T12:16:55;100591.41;;;14.86;84.26
59825;BME280;45703;50.898;6.054;2023-02-17T12:25:07;100582.16;;;14.94;84.42
59825;BME280;45703;50.898;6.054;2023-02-17T12:30:27;100576.88;;;14.99;83.59
59825;BME280;45703;50.898;6.054;2023-02-17T12:38:14;100572.50;;;15.09;82.78
59825;BME280;45703;50.898;6.054;2023-02-17T12:40:49;100561.75;;;15.09;83.12
59825;BME280;45703;50.898;6.054;2023-02-17T12:43:38;100573.06;;;15.11;82.24
59825;BME280;45703;50.898;6.054;2023-02-17T12:46:09;100571.44;;;15.10;82.26
59825;BME280;45703;50.898;6.054;2023-02-17T12:48:41;100566.94;;;15.16;82.77
59825;BME280;45703;50.898;6.054;2023-02-17T12:51:29;100571.03;;;15.18;83.29
59825;BME280;45703;50.898;6.054;2023-02-17T12:54:05;100575.50;;;15.13;82.60
59825;BME280;45703;50.898;6.054;2023-02-17T12:59:48;100591.19;;;15.04;82.58
59825;BME280;45703;50.898;6.054;2023-02-17T13:02:22;100580.94;;;15.01;82.78
59825;BME280;45703;50.898;6.054;2023-02-17T13:04:50;100577.66;;;14.99;83.12
59825;BME280;45703;50.898;6.054;2023-02-17T13:07:32;100597.53;;;14.98;83.16
59825;BME280;45703;50.898;6.054;2023-02-17T13:10:01;100594.28;;;14.96;82.26
59825;BME280;45703;50.898;6.054;2023-02-17T13:14:58;100603.88;;;14.92;82.40
59825;BME280;45703;50.898;6.054;2023-02-17T13:17:55;100574.22;;;14.87;82.90
59825;BME280;45703;50.898;6.054;2023-02-17T13:21:14;100559.06;;;14.81;83.38
59825;BME280;45703;50.898;6.054;2023-02-17T13:23:24;100562.81;;;14.80;83.36
59825;BME280;45703;50.898;6.054;2023-02-17T13:26:45;100567.69;;;14.83;83.62
59825;BME280;45703;50.898;6.054;2023-02-17T13:28:48;100577.78;;;14.76;83.39
59825;BME280;45703;50.898;6.054;2023-02-17T13:31:21;100586.91;;;14.75;83.70
59825;BME280;45703;50.898;6.054;2023-02-17T13:33:58;100598.22;;;14.77;83.49
59825;BME280;45703;50.898;6.054;2023-02-17T13:41:33;100599.84;;;14.78;82.08
59825;BME280;45703;50.898;6.054;2023-02-17T13:46:46;100611.41;;;14.79;82.20
59825;BME280;45703;50.898;6.054;2023-02-17T13:49:20;100614.94;;;14.79;81.15
59825;BME280;45703;50.898;6.054;2023-02-17T13:51:46;100623.09;;;14.84;81.38
59825;BME280;45703;50.898;6.054;2023-02-17T13:54:21;100635.00;;;14.88;81.07
59825;BME280;45703;50.898;6.054;2023-02-17T13:56:52;100624.25;;;14.88;80.48
59825;BME280;45703;50.898;6.054;2023-02-17T13:59:24;100630.94;;;14.86;80.60
59825;BME280;45703;50.898;6.054;2023-02-17T14:01:50;100630.84;;;14.81;79.97
59825;BME280;45703;50.898;6.054;2023-02-17T14:04:28;100624.84;;;14.79;79.68
59825;BME280;45703;50.898;6.054;2023-02-17T14:06:59;100628.59;;;14.78;79.66
59825;BME280;45703;50.898;6.054;2023-02-17T14:12:01;100620.88;;;14.81;78.89
59825;BME280;45703;50.898;6.054;2023-02-17T14:14:32;100631.06;;;14.79;78.77
59825;BME280;45703;50.898;6.054;2023-02-17T14:17:30;100621.47;;;14.83;79.39
59825;BME280;45703;50.898;6.054;2023-02-17T14:19:57;100626.25;;;14.81;79.55